Time;durP1;ratioP1;P1;durP2;ratioP2;P2;SDS_P1;SDS_P2;PMS_P1;PMS_P2;Temp;Humidity;BMP_temperature;BMP_pressure;BME280_temperature;BME280_humidity;BME280_pressure;Samples;Min_cycle;Max_cycle;Signal;HPM_P1;HPM_P2
2022/11/13 00:00:25;;;;;;;20.10;13.60;;;5.50;99.90;;;;;;4963460;28;20503;-84
2022/11/13 00:02:50;;;;;;;21.25;14.68;;;5.50;99.90;;;;;;4934198;28;20406;-84
2022/11/13 00:05:16;;;;;;;20.67;14.25;;;5.50;99.90;;;;;;4968641;28;20502;-84
2022/11/13 00:07:42;;;;;;;19.65;13.32;;;5.80;99.90;;;;;;4922816;28;20067;-84
2022/11/13 00:10:08;;;;;;;22.25;14.40;;;6.30;99.90;;;;;;4946984;28;20060;-84
2022/11/13 00:12:34;;;;;;;19.35;13.90;;;5.50;99.90;;;;;;4934056;28;20561;-85
2022/11/13 00:14:59;;;;;;;24.40;14.85;;;5.50;99.90;;;;;;4955525;28;20129;-84
2022/11/13 00:17:26;;;;;;;21.77;14.32;;;5.50;99.90;;;;;;4939897;28;20512;-84
2022/11/13 00:19:52;;;;;;;23.05;14.85;;;5.60;99.90;;;;;;4955286;28;20139;-84
2022/11/13 00:22:17;;;;;;;21.45;14.23;;;5.50;99.90;;;;;;4940004;28;20050;-84
2022/11/13 00:24:43;;;;;;;21.98;14.73;;;5.50;99.90;;;;;;4938967;28;20123;-84
2022/11/13 00:27:09;;;;;;;21.73;14.60;;;5.60;99.90;;;;;;4940213;28;20129;-84
2022/11/13 00:29:34;;;;;;;26.02;17.30;;;5.60;99.90;;;;;;4954302;28;20487;-84
2022/11/13 00:32:00;;;;;;;26.17;17.25;;;5.70;99.90;;;;;;4960392;28;20050;-85
2022/11/13 00:34:26;;;;;;;25.25;16.13;;;6.60;99.90;;;;;;4942178;28;20057;-85
2022/11/13 00:36:51;;;;;;;23.63;16.27;;;6.40;99.90;;;;;;4927427;28;20133;-85
2022/11/13 00:39:17;;;;;;;25.05;16.42;;;5.80;99.90;;;;;;4940245;28;20049;-85
2022/11/13 00:41:43;;;;;;;25.30;15.88;;;7.20;99.90;;;;;;4927390;28;20051;-85
2022/11/13 00:44:08;;;;;;;21.92;14.95;;;6.70;99.90;;;;;;4942301;28;20462;-85
2022/11/13 00:46:34;;;;;;;24.48;17.23;;;5.90;99.90;;;;;;4937898;28;20065;-85
2022/11/13 00:49:00;;;;;;;22.70;15.63;;;;;;;;;;4950414;28;20043;-85
2022/11/13 00:51:26;;;;;;;25.45;17.50;;;5.90;99.90;;;;;;4958488;28;20084;-85
2022/11/13 00:53:52;;;;;;;24.00;16.63;;;6.40;99.90;;;;;;4943170;28;20042;-85
2022/11/13 00:56:17;;;;;;;22.00;15.70;;;7.10;99.90;;;;;;4957865;28;20042;-85
2022/11/13 00:58:43;;;;;;;25.00;16.90;;;6.00;99.90;;;;;;4942970;28;20282;-85
2022/11/13 01:01:12;;;;;;;24.10;16.50;;;7.40;99.90;;;;;;4955394;28;20034;-85
2022/11/13 01:03:38;;;;;;;24.02;16.83;;;6.80;99.90;;;;;;4958701;28;20038;-85
2022/11/13 01:06:18;;;;;;;25.83;16.13;;;6.30;99.90;;;;;;4957345;28;20511;-85
2022/11/13 01:08:44;;;;;;;22.60;16.00;;;6.10;99.90;;;;;;4958006;28;20038;-84
2022/11/13 01:11:12;;;;;;;23.33;16.25;;;7.60;99.90;;;;;;4941144;28;20031;-85
2022/11/13 01:13:39;;;;;;;22.42;15.30;;;6.10;99.90;;;;;;4958754;28;20105;-85
2022/11/13 01:16:07;;;;;;;23.70;16.80;;;6.10;99.90;;;;;;4957902;28;20073;-84
2022/11/13 01:18:33;;;;;;;26.33;17.85;;;6.20;99.90;;;;;;4956982;28;20050;-85
2022/11/13 01:21:19;;;;;;;25.63;18.02;;;7.40;99.90;;;;;;4945724;28;20045;-85
2022/11/13 01:23:46;;;;;;;25.33;17.75;;;6.20;99.90;;;;;;4974805;28;20125;-84
2022/11/13 01:26:20;;;;;;;26.25;16.98;;;6.90;99.90;;;;;;4957521;28;20122;-84
2022/11/13 01:28:46;;;;;;;24.75;17.02;;;6.20;99.90;;;;;;4957258;28;20124;-84
2022/11/13 01:31:18;;;;;;;23.77;16.98;;;6.20;99.90;;;;;;4956223;28;20496;-84
2022/11/13 01:33:44;;;;;;;26.02;17.45;;;7.70;99.90;;;;;;4958162;28;20100;-85
2022/11/13 01:36:20;;;;;;;24.98;15.95;;;6.20;99.90;;;;;;4957484;28;20625;-84
2022/11/13 01:38:45;;;;;;;24.20;16.70;;;6.20;99.90;;;;;;4971807;28;20059;-85
2022/11/13 01:41:18;;;;;;;24.10;16.83;;;7.60;99.90;;;;;;4940541;28;20457;-85
2022/11/13 01:43:43;;;;;;;25.05;17.38;;;6.30;99.90;;;;;;4974067;28;20046;-85
2022/11/13 01:46:12;;;;;;;26.10;16.20;;;6.60;99.90;;;;;;4937951;28;20034;-84
2022/11/13 01:48:42;;;;;;;23.77;16.08;;;7.50;99.90;;;;;;4969368;28;20570;-85
2022/11/13 01:51:17;;;;;;;24.73;16.70;;;6.20;99.90;;;;;;4957203;28;20069;-84
2022/11/13 01:53:45;;;;;;;23.30;16.08;;;7.10;99.90;;;;;;4957418;28;20077;-84
2022/11/13 01:56:12;;;;;;;23.85;16.35;;;7.00;99.90;;;;;;4941793;28;20049;-85
2022/11/13 01:58:40;;;;;;;24.10;16.90;;;6.70;99.90;;;;;;4956692;28;20052;-85
2022/11/13 02:01:05;;;;;;;22.08;15.32;;;7.00;99.90;;;;;;4957247;28;20109;-85
2022/11/13 02:03:31;;;;;;;23.27;16.40;;;7.30;99.90;;;;;;4940917;28;20050;-84
2022/11/13 02:05:57;;;;;;;23.98;16.58;;;7.20;99.90;;;;;;4957023;28;20049;-84
2022/11/13 02:08:23;;;;;;;22.13;15.48;;;7.60;99.90;;;;;;4941365;28;20038;-85
2022/11/13 02:10:49;;;;;;;22.98;15.57;;;6.60;99.90;;;;;;4939646;28;20039;-85
2022/11/13 02:13:15;;;;;;;22.83;16.08;;;6.30;99.90;;;;;;4941066;28;20042;-85
2022/11/13 02:15:42;;;;;;;22.45;15.95;;;6.30;99.90;;;;;;4956675;28;20048;-85
2022/11/13 02:18:09;;;;;;;25.17;16.27;;;7.80;99.90;;;;;;4947430;28;20129;-85
2022/11/13 02:20:42;;;;;;;27.17;16.60;;;6.30;99.90;;;;;;4971088;28;20127;-85
2022/11/13 02:23:12;;;;;;;23.02;15.07;;;7.30;99.90;;;;;;4972391;28;20129;-84
2022/11/13 02:25:39;;;;;;;23.35;16.05;;;6.30;99.90;;;;;;4957544;28;20109;-84
2022/11/13 02:28:05;;;;;;;24.20;16.17;;;6.90;99.90;;;;;;4939558;28;20038;-85
2022/11/13 02:30:33;;;;;;;22.50;15.63;;;6.90;99.90;;;;;;4956437;28;20048;-85
2022/11/13 02:32:59;;;;;;;22.05;15.48;;;6.30;99.90;;;;;;4956313;28;20056;-85
2022/11/13 02:35:34;;;;;;;22.13;15.32;;;7.30;99.90;;;;;;4956957;28;20042;-85
2022/11/13 02:38:03;;;;;;;22.00;15.13;;;7.40;99.90;;;;;;4956304;28;20049;-84
2022/11/13 02:40:30;;;;;;;24.73;15.43;;;6.40;99.90;;;;;;4955238;28;20065;-86
2022/11/13 02:42:55;;;;;;;24.92;15.48;;;6.40;99.90;;;;;;4956919;28;20050;-85
2022/11/13 02:45:21;;;;;;;26.42;15.18;;;7.50;99.90;;;;;;4941573;28;20039;-84
2022/11/13 02:47:47;;;;;;;23.58;15.52;;;6.30;99.90;;;;;;4940188;28;20458;-84
2022/11/13 02:50:13;;;;;;;22.70;14.93;;;6.30;99.90;;;;;;4955744;28;20038;-84
2022/11/13 02:52:39;;;;;;;22.75;14.98;;;7.10;99.90;;;;;;4939988;28;20557;-84
2022/11/13 02:55:05;;;;;;;23.83;15.23;;;6.30;99.90;;;;;;4940797;28;20046;-84
2022/11/13 02:57:30;;;;;;;24.98;15.85;;;6.40;99.90;;;;;;4953994;28;20077;-85
2022/11/13 02:59:56;;;;;;;21.60;14.73;;;7.70;99.90;;;;;;4935686;28;20042;-85
2022/11/13 03:02:22;;;;;;;26.13;16.17;;;7.30;99.90;;;;;;4940775;28;20039;-85
2022/11/13 03:04:47;;;;;;;25.08;15.60;;;7.80;99.90;;;;;;4940828;28;20056;-85
2022/11/13 03:07:13;;;;;;;24.98;15.70;;;6.30;99.90;;;;;;4954969;28;20096;-85
2022/11/13 03:09:40;;;;;;;21.60;14.52;;;7.00;99.90;;;;;;4955036;28;20126;-85
2022/11/13 03:12:09;;;;;;;22.85;14.98;;;6.30;99.90;;;;;;4955538;28;20054;-85
2022/11/13 03:14:35;;;;;;;24.27;15.23;;;6.80;99.90;;;;;;4935526;28;20085;-85
2022/11/13 03:17:01;;;;;;;21.13;14.27;;;7.20;99.90;;;;;;4924263;28;20058;-85
2022/11/13 03:19:27;;;;;;;23.65;15.98;;;7.20;99.90;;;;;;4940458;28;20502;-85
2022/11/13 03:21:53;;;;;;;22.77;14.45;;;7.90;99.90;;;;;;4955387;28;20039;-85
2022/11/13 03:24:18;;;;;;;22.35;14.50;;;6.30;99.90;;;;;;4955463;28;20042;-85
2022/11/13 03:26:44;;;;;;;21.85;15.15;;;6.30;99.90;;;;;;4956346;28;20061;-85
2022/11/13 03:29:10;;;;;;;20.63;14.27;;;7.20;99.90;;;;;;4939864;28;20039;-86
2022/11/13 03:31:35;;;;;;;23.02;14.52;;;6.30;99.90;;;;;;4954667;28;20073;-86
2022/11/13 03:34:01;;;;;;;21.38;14.15;;;6.30;99.90;;;;;;4938917;28;20026;-86
2022/11/13 03:36:27;;;;;;;25.67;15.27;;;6.30;99.90;;;;;;4940654;28;20517;-85
2022/11/13 03:38:53;;;;;;;23.25;15.10;;;7.00;99.90;;;;;;4954836;28;20049;-85
2022/11/13 03:41:20;;;;;;;23.02;14.93;;;7.40;99.90;;;;;;4970451;28;20038;-86
2022/11/13 03:43:45;;;;;;;22.80;15.43;;;7.80;99.90;;;;;;4972385;28;20065;-86
2022/11/13 03:46:11;;;;;;;21.58;14.77;;;7.60;99.90;;;;;;4940227;28;20495;-85
2022/11/13 03:48:37;;;;;;;19.95;13.82;;;6.30;99.90;;;;;;4953682;28;20388;-85
2022/11/13 03:51:03;;;;;;;22.50;14.65;;;6.70;99.90;;;;;;4939368;28;20388;-85
2022/11/13 03:53:29;;;;;;;21.70;14.63;;;6.30;99.90;;;;;;4939349;28;20072;-85
2022/11/13 03:55:54;;;;;;;21.20;14.27;;;6.30;99.90;;;;;;4940124;28;20042;-84
2022/11/13 03:58:20;;;;;;;21.13;13.98;;;6.30;99.90;;;;;;4956627;28;20523;-85
2022/11/13 04:00:46;;;;;;;21.52;14.02;;;;;;;;;;4940104;28;20407;-85
2022/11/13 04:03:12;;;;;;;21.38;13.38;;;6.30;99.90;;;;;;4954900;28;20529;-85
2022/11/13 04:05:38;;;;;;;20.38;13.18;;;6.40;99.90;;;;;;4942611;28;20046;-85
2022/11/13 04:08:04;;;;;;;20.20;13.48;;;7.90;99.90;;;;;;4959206;28;20030;-85
2022/11/13 04:10:30;;;;;;;21.50;14.52;;;6.40;99.90;;;;;;4943202;28;20458;-85
2022/11/13 04:12:56;;;;;;;23.42;13.65;;;6.30;99.90;;;;;;4958848;28;20034;-85
2022/11/13 04:15:22;;;;;;;21.48;13.80;;;8.00;99.90;;;;;;4942440;28;20095;-85
2022/11/13 04:17:48;;;;;;;21.30;14.05;;;6.30;99.90;;;;;;4940271;28;20105;-85
2022/11/13 04:20:14;;;;;;;20.70;13.82;;;6.30;99.90;;;;;;4956341;28;20055;-85
2022/11/13 04:22:40;;;;;;;21.13;13.63;;;6.30;99.90;;;;;;4937801;28;20054;-85
2022/11/13 04:25:06;;;;;;;20.45;13.68;;;8.10;99.90;;;;;;4940340;28;20063;-85
2022/11/13 04:27:32;;;;;;;20.08;13.27;;;6.20;99.90;;;;;;4940274;28;20097;-85
2022/11/13 04:30:01;;;;;;;21.63;12.95;;;8.10;99.90;;;;;;4940356;28;20086;-85
2022/11/13 04:32:27;;;;;;;19.67;12.65;;;5.20;99.90;;;;;;4940475;28;20441;-85
2022/11/13 04:34:52;;;;;;;19.52;13.07;;;7.30;99.90;;;;;;4938164;28;20101;-85
2022/11/13 04:37:18;;;;;;;19.92;12.70;;;6.70;99.90;;;;;;4955218;28;20046;-85
2022/11/13 04:39:44;;;;;;;21.63;13.82;;;6.80;99.90;;;;;;4938987;28;20047;-85
2022/11/13 04:44:55;;;;;;;20.45;13.70;;;6.20;99.90;;;;;;4970086;28;20053;-85
2022/11/13 04:47:20;;;;;;;19.23;12.93;;;6.90;99.90;;;;;;4971791;28;20043;-85
2022/11/13 04:49:46;;;;;;;18.20;12.32;;;6.20;99.90;;;;;;4970983;28;20120;-85
2022/11/13 04:52:12;;;;;;;19.92;13.10;;;6.10;99.90;;;;;;4940191;28;20123;-85
2022/11/13 04:54:38;;;;;;;20.90;12.90;;;6.90;99.90;;;;;;4953771;28;20412;-85
2022/11/13 04:57:04;;;;;;;20.60;13.23;;;6.10;99.90;;;;;;4939590;28;20074;-85
2022/11/13 04:59:29;;;;;;;18.92;12.63;;;7.20;99.90;;;;;;4954827;28;20131;-85
2022/11/13 05:01:55;;;;;;;22.13;12.40;;;6.10;99.90;;;;;;4955911;28;20074;-85
2022/11/13 05:04:22;;;;;;;20.80;13.35;;;7.30;99.90;;;;;;4955459;28;20035;-86
2022/11/13 05:06:47;;;;;;;19.75;13.10;;;6.10;99.90;;;;;;4954807;28;20479;-84
2022/11/13 05:09:13;;;;;;;19.33;12.07;;;7.90;99.90;;;;;;4937457;28;20043;-84
2022/11/13 05:11:39;;;;;;;21.10;12.75;;;6.10;99.90;;;;;;4924202;28;20042;-85
2022/11/13 05:14:05;;;;;;;18.00;12.70;;;6.00;99.90;;;;;;4938524;28;20499;-85
2022/11/13 05:16:31;;;;;;;19.95;12.48;;;7.20;99.90;;;;;;4936502;28;20054;-84
2022/11/13 05:18:57;;;;;;;20.67;12.77;;;6.30;99.90;;;;;;4939297;28;20055;-85
2022/11/13 05:21:23;;;;;;;19.00;12.98;;;6.00;99.90;;;;;;4971281;28;20042;-85
2022/11/13 05:23:49;;;;;;;18.98;11.90;;;6.10;99.90;;;;;;4954908;28;20057;-85
2022/11/13 05:26:15;;;;;;;19.48;12.35;;;5.90;99.90;;;;;;4935256;28;20114;-85
2022/11/13 05:28:41;;;;;;;18.73;12.90;;;5.90;99.90;;;;;;4923448;28;20161;-84
2022/11/13 05:31:07;;;;;;;20.63;11.88;;;6.30;99.90;;;;;;4953777;28;20045;-85
2022/11/13 05:33:34;;;;;;;18.92;12.48;;;5.80;99.90;;;;;;4955137;28;20062;-85
2022/11/13 05:36:06;;;;;;;20.00;11.70;;;7.40;99.90;;;;;;4954076;28;20043;-85
2022/11/13 05:38:32;;;;;;;17.77;12.13;;;5.80;99.90;;;;;;4968299;28;20050;-85
2022/11/13 05:41:12;;;;;;;19.13;12.40;;;5.70;99.90;;;;;;4938327;28;20046;-85
2022/11/13 05:43:39;;;;;;;20.90;12.10;;;5.70;99.90;;;;;;4953933;28;20039;-84
2022/11/13 05:46:09;;;;;;;22.20;13.10;;;6.70;99.90;;;;;;4954692;28;20035;-85
2022/11/13 05:48:35;;;;;;;18.10;11.73;;;5.60;99.90;;;;;;4953768;28;20488;-85
2022/11/13 05:51:07;;;;;;;19.52;11.70;;;5.60;99.90;;;;;;4954704;28;20123;-84
2022/11/13 05:53:34;;;;;;;19.70;12.45;;;6.10;99.90;;;;;;4954896;28;20066;-85
2022/11/13 05:56:07;;;;;;;20.75;12.40;;;5.50;99.90;;;;;;4969368;28;20109;-85
2022/11/13 05:58:33;;;;;;;;;;;5.50;99.90;;;;;;4954207;28;20109;-85
2022/11/13 06:01:12;;;;;;;20.45;12.20;;;6.40;99.90;;;;;;4970679;28;19926;-84
2022/11/13 06:03:38;;;;;;;18.20;11.73;;;6.60;99.90;;;;;;4954347;28;20043;-84
2022/11/13 06:06:09;;;;;;;19.80;12.75;;;4.30;99.90;;;;;;4954502;28;20038;-84
2022/11/13 06:08:35;;;;;;;18.88;11.70;;;5.40;99.90;;;;;;4952444;28;20047;-85
2022/11/13 06:11:03;;;;;;;20.80;11.95;;;6.70;99.90;;;;;;4953196;28;20121;-85
2022/11/13 06:13:29;;;;;;;19.30;12.55;;;5.30;99.90;;;;;;4970468;28;20043;-84
2022/11/13 06:16:07;;;;;;;16.98;11.48;;;5.30;99.90;;;;;;4953261;28;20119;-84
2022/11/13 06:18:34;;;;;;;18.90;12.20;;;5.30;99.90;;;;;;4968830;28;20078;-84
2022/11/13 06:21:09;;;;;;;19.60;12.70;;;5.30;99.90;;;;;;4970137;28;20039;-85
2022/11/13 06:23:37;;;;;;;19.30;12.27;;;6.10;99.90;;;;;;4970281;28;20078;-85
2022/11/13 06:26:09;;;;;;;18.77;12.45;;;5.30;99.90;;;;;;4954165;28;20126;-85
2022/11/13 06:28:35;;;;;;;19.00;11.32;;;5.30;99.90;;;;;;4968025;28;20447;-84
2022/11/13 06:31:06;;;;;;;19.27;12.32;;;5.20;99.90;;;;;;4953167;28;20042;-85
2022/11/13 06:33:32;;;;;;;19.02;11.95;;;6.60;99.90;;;;;;4938606;28;20358;-85
2022/11/13 06:36:01;;;;;;;19.08;12.20;;;6.50;99.90;;;;;;4953189;28;20403;-85
2022/11/13 06:38:33;;;;;;;16.95;11.65;;;5.20;99.90;;;;;;4953453;28;20120;-85
2022/11/13 06:40:59;;;;;;;20.08;11.95;;;5.40;99.90;;;;;;4970014;28;20046;-84
2022/11/13 06:43:25;;;;;;;20.55;12.52;;;5.20;99.90;;;;;;4969680;28;20114;-84
2022/11/13 06:45:52;;;;;;;19.83;12.15;;;5.10;99.90;;;;;;4934933;28;20141;-84
2022/11/13 06:48:17;;;;;;;17.50;11.40;;;6.20;99.90;;;;;;4965042;28;20035;-84
2022/11/13 06:50:43;;;;;;;20.98;12.43;;;6.50;99.90;;;;;;4950231;28;20046;-84
2022/11/13 06:53:09;;;;;;;18.70;11.32;;;5.10;99.90;;;;;;4951268;28;20431;-84
2022/11/13 06:55:34;;;;;;;17.95;12.05;;;6.00;99.90;;;;;;4933121;28;20039;-85
2022/11/13 06:58:00;;;;;;;19.05;11.40;;;5.30;99.90;;;;;;4952914;28;20039;-84
2022/11/13 07:00:26;;;;;;;18.25;11.57;;;5.30;99.90;;;;;;4933361;29;20046;-83
2022/11/13 07:02:52;;;;;;;18.92;11.90;;;5.00;99.90;;;;;;4936004;28;20047;-85
2022/11/13 07:05:17;;;;;;;20.77;11.82;;;5.00;99.90;;;;;;4953522;28;20547;-86
2022/11/13 07:07:43;;;;;;;18.42;11.57;;;5.00;99.90;;;;;;4953892;28;20042;-85
2022/11/13 07:10:09;;;;;;;19.45;12.32;;;5.50;99.90;;;;;;4936700;28;20042;-85
2022/11/13 07:12:35;;;;;;;17.98;11.00;;;6.20;99.90;;;;;;4950004;29;20047;-84
2022/11/13 07:15:00;;;;;;;18.33;11.70;;;5.90;99.90;;;;;;4934046;29;20074;-84
2022/11/13 07:17:27;;;;;;;18.30;11.52;;;5.80;99.90;;;;;;4928934;28;20099;-84
2022/11/13 07:19:53;;;;;;;19.88;11.55;;;6.90;99.90;;;;;;4953265;28;20102;-84
2022/11/13 07:22:19;;;;;;;18.40;11.95;;;4.90;99.90;;;;;;4952275;28;20046;-84
2022/11/13 07:24:45;;;;;;;19.83;11.98;;;5.00;99.90;;;;;;4953072;28;20053;-84
2022/11/13 07:27:10;;;;;;;20.80;12.40;;;5.00;99.90;;;;;;4953356;28;20043;-84
2022/11/13 07:29:37;;;;;;;19.45;12.18;;;5.00;99.90;;;;;;4936986;28;20050;-84
2022/11/13 07:32:04;;;;;;;22.92;12.40;;;5.00;99.90;;;;;;4937058;28;20099;-85
2022/11/13 07:34:30;;;;;;;19.27;12.15;;;5.00;99.90;;;;;;4934557;28;20083;-84
2022/11/13 07:36:55;;;;;;;19.10;11.73;;;5.10;99.90;;;;;;4953084;28;20128;-85
2022/11/13 07:39:21;;;;;;;19.30;11.80;;;5.10;99.90;;;;;;4952614;28;20082;-85
2022/11/13 07:41:47;;;;;;;18.92;11.65;;;5.20;99.90;;;;;;4921525;28;20519;-84
2022/11/13 07:44:13;;;;;;;18.15;11.20;;;5.20;99.90;;;;;;4932994;29;20054;-85
2022/11/13 07:46:38;;;;;;;19.33;12.23;;;6.10;99.90;;;;;;4949730;28;20050;-85
2022/11/13 07:49:04;;;;;;;18.27;12.00;;;5.50;99.90;;;;;;4949814;29;20143;-85
2022/11/13 07:51:30;;;;;;;19.25;11.93;;;5.30;99.90;;;;;;4952006;28;20093;-85
2022/11/13 07:53:56;;;;;;;19.67;12.07;;;6.30;99.90;;;;;;4952140;28;20043;-85
2022/11/13 07:56:24;;;;;;;17.50;11.43;;;5.60;99.90;;;;;;4952926;28;20097;-84
2022/11/13 07:58:50;;;;;;;18.58;12.18;;;6.30;99.90;;;;;;4952728;28;20038;-85
2022/11/13 08:01:15;;;;;;;20.23;12.45;;;6.30;99.90;;;;;;4951670;28;20038;-84
2022/11/13 08:03:41;;;;;;;21.90;12.80;;;6.10;99.90;;;;;;4933862;29;20054;-84
2022/11/13 08:06:07;;;;;;;20.10;12.88;;;5.60;99.90;;;;;;4933833;28;20346;-85
2022/11/13 08:08:33;;;;;;;21.33;12.57;;;5.60;99.90;;;;;;4932390;28;20035;-85
2022/11/13 08:11:04;;;;;;;20.88;12.98;;;6.40;99.90;;;;;;4949797;28;20109;-84
2022/11/13 08:13:29;;;;;;;18.88;11.88;;;6.70;99.90;;;;;;4952768;28;20043;-84
2022/11/13 08:15:59;;;;;;;21.73;12.02;;;5.80;99.90;;;;;;4920784;28;20046;-84
2022/11/13 08:18:25;;;;;;;17.50;11.93;;;6.80;99.90;;;;;;4968566;28;20094;-84
2022/11/13 08:20:51;;;;;;;21.38;12.60;;;5.90;99.90;;;;;;4951690;28;20057;-86
2022/11/13 08:23:17;;;;;;;18.75;12.07;;;6.00;99.90;;;;;;4935643;28;20042;-86
2022/11/13 08:25:42;;;;;;;19.58;12.10;;;7.00;99.90;;;;;;4950479;28;20050;-86
2022/11/13 08:28:08;;;;;;;20.63;12.65;;;6.20;99.90;;;;;;4952679;28;20035;-84
2022/11/13 08:30:34;;;;;;;20.00;12.30;;;6.30;99.90;;;;;;4919177;28;20035;-84
2022/11/13 08:33:01;;;;;;;20.20;12.85;;;6.40;99.90;;;;;;4935113;28;20047;-86
2022/11/13 08:35:27;;;;;;;18.02;12.57;;;7.10;99.90;;;;;;4934121;28;20663;-85
2022/11/13 08:37:53;;;;;;;18.73;12.90;;;6.60;99.90;;;;;;4948763;28;20059;-85
2022/11/13 08:40:18;;;;;;;20.08;12.18;;;6.70;99.90;;;;;;4918684;28;20039;-84
2022/11/13 08:42:44;;;;;;;19.20;11.98;;;6.80;99.90;;;;;;4950749;28;20559;-85
2022/11/13 08:45:11;;;;;;;17.85;11.90;;;6.80;99.90;;;;;;4933216;28;20035;-85
2022/11/13 08:47:37;;;;;;;17.95;11.95;;;8.30;99.90;;;;;;4958571;28;20162;-86
2022/11/13 08:50:04;;;;;;;17.75;11.68;;;7.00;99.90;;;;;;4949896;28;20157;-85
2022/11/13 08:52:29;;;;;;;17.05;10.55;;;7.10;99.90;;;;;;4954507;28;20082;-85
2022/11/13 08:54:55;;;;;;;19.15;12.15;;;7.10;99.90;;;;;;4951792;28;21148;-86
2022/11/13 08:57:21;;;;;;;17.70;11.32;;;7.20;99.90;;;;;;4953682;28;20070;-85
2022/11/13 08:59:46;;;;;;;19.55;11.23;;;7.30;99.90;;;;;;4954520;28;20051;-85
2022/11/13 09:02:14;;;;;;;17.10;11.05;;;7.40;99.90;;;;;;4950164;28;20454;-86
2022/11/13 09:04:40;;;;;;;19.23;11.23;;;7.80;99.90;;;;;;4953309;28;20066;-86
2022/11/13 09:07:05;;;;;;;17.45;10.90;;;7.60;99.90;;;;;;4939738;28;20043;-85
2022/11/13 09:09:33;;;;;;;19.95;11.45;;;7.60;99.90;;;;;;4936161;28;20097;-86
2022/11/13 09:11:59;;;;;;;18.33;11.48;;;7.70;99.90;;;;;;4952787;28;20278;-85
2022/11/13 09:14:25;;;;;;;17.90;11.43;;;7.80;99.90;;;;;;4953177;28;20186;-85
2022/11/13 09:16:50;;;;;;;16.45;11.35;;;7.90;99.90;;;;;;4935711;28;20551;-85
2022/11/13 09:19:16;;;;;;;15.18;10.85;;;7.90;99.90;;;;;;4937612;28;20133;-85
2022/11/13 09:21:42;;;;;;;15.85;10.77;;;8.00;99.90;;;;;;4936236;28;20050;-85
2022/11/13 09:24:07;;;;;;;16.85;10.73;;;8.50;99.90;;;;;;4955384;28;20042;-85
2022/11/13 09:26:34;;;;;;;16.77;11.02;;;8.10;99.90;;;;;;4952652;28;20046;-85
2022/11/13 09:29:00;;;;;;;17.73;10.70;;;9.50;99.90;;;;;;4934149;28;20050;-86
2022/11/13 09:31:26;;;;;;;17.33;10.18;;;8.20;99.90;;;;;;4950412;28;20042;-85
2022/11/13 09:33:51;;;;;;;16.15;10.68;;;8.20;99.90;;;;;;4955293;28;20047;-87
2022/11/13 09:36:17;;;;;;;18.27;10.57;;;8.40;99.90;;;;;;4938805;28;20046;-85
2022/11/13 09:38:43;;;;;;;16.45;10.73;;;8.40;99.90;;;;;;4938037;28;20051;-85
2022/11/13 09:41:12;;;;;;;17.80;11.18;;;9.80;99.90;;;;;;4938800;28;20121;-85
2022/11/13 09:43:37;;;;;;;18.27;10.98;;;8.50;99.90;;;;;;4971405;28;20047;-86
2022/11/13 09:46:32;;;;;;;16.92;10.93;;;9.80;99.90;;;;;;4971195;28;20039;-86
2022/11/13 09:49:02;;;;;;;18.88;11.25;;;8.60;99.90;;;;;;4945628;28;20069;-85
2022/11/13 09:51:32;;;;;;;18.33;10.23;;;8.60;99.90;;;;;;4954664;28;20121;-86
2022/11/13 09:54:04;;;;;;;16.95;10.82;;;8.70;99.90;;;;;;4953826;28;20050;-85
2022/11/13 09:56:32;;;;;;;15.90;11.13;;;8.80;99.90;;;;;;4958012;28;20058;-86
2022/11/13 09:59:11;;;;;;;16.15;10.00;;;8.80;99.90;;;;;;4971040;28;20038;-85
2022/11/13 10:02:16;;;;;;;17.33;10.20;;;9.70;99.90;;;;;;4954640;28;20522;-85
2022/11/13 10:05:09;;;;;;;16.85;10.23;;;9.00;99.90;;;;;;4961407;28;20421;-85
2022/11/13 10:07:49;;;;;;;18.05;10.10;;;9.00;99.90;;;;;;4953925;28;20038;-85
2022/11/13 10:10:36;;;;;;;15.13;9.93;;;9.00;99.90;;;;;;4969182;28;20061;-85
2022/11/13 10:13:04;;;;;;;17.65;9.80;;;9.00;99.90;;;;;;4954605;28;20530;-85
2022/11/13 10:15:30;;;;;;;15.95;10.10;;;9.10;99.90;;;;;;4970409;28;20045;-85
2022/11/13 10:18:09;;;;;;;16.60;10.10;;;9.10;99.90;;;;;;4953365;28;20590;-85
2022/11/13 10:20:49;;;;;;;16.70;9.85;;;9.10;99.90;;;;;;4952574;28;20038;-85
2022/11/13 10:23:34;;;;;;;16.85;10.02;;;10.00;99.90;;;;;;4954096;28;20046;-85
2022/11/13 10:26:16;;;;;;;15.98;9.98;;;9.20;99.90;;;;;;4954317;28;20042;-85
2022/11/13 10:28:42;;;;;;;15.45;9.82;;;9.20;99.90;;;;;;4952976;28;20101;-84
2022/11/13 10:31:12;;;;;;;14.77;9.48;;;9.30;99.90;;;;;;4931541;29;20043;-84
2022/11/13 10:33:37;;;;;;;16.00;9.48;;;9.30;99.90;;;;;;4951761;28;20043;-85
2022/11/13 10:36:31;;;;;;;15.35;10.20;;;9.30;99.90;;;;;;4933908;28;20189;-85
2022/11/13 10:39:09;;;;;;;16.52;9.75;;;9.30;99.90;;;;;;4954186;28;20096;-85
2022/11/13 10:41:49;;;;;;;15.70;9.70;;;9.40;99.90;;;;;;4953838;28;20243;-84
2022/11/13 10:44:30;;;;;;;15.55;9.73;;;9.80;99.90;;;;;;4967962;28;20043;-85
2022/11/13 10:47:18;;;;;;;15.65;10.02;;;9.40;99.90;;;;;;4947886;29;20042;-86
2022/11/13 10:49:44;;;;;;;14.80;9.93;;;9.40;99.90;;;;;;4948638;28;20492;-85
2022/11/13 10:52:24;;;;;;;15.65;10.10;;;10.60;99.90;;;;;;4953810;28;20177;-86
2022/11/13 10:55:02;;;;;;;15.95;10.38;;;9.50;99.90;;;;;;4967442;28;20144;-85
2022/11/13 10:57:34;;;;;;;15.70;10.05;;;9.60;99.90;;;;;;4953484;28;20050;-86
2022/11/13 11:00:00;;;;;;;18.33;10.63;;;10.60;99.90;;;;;;4953482;28;20047;-86
2022/11/13 11:02:27;;;;;;;15.65;10.02;;;9.50;99.90;;;;;;4953417;28;20043;-85
2022/11/13 11:05:17;;;;;;;16.05;10.80;;;9.60;99.90;;;;;;4968873;28;20038;-86
2022/11/13 11:07:43;;;;;;;16.45;10.10;;;11.00;99.90;;;;;;4953709;28;20038;-85
2022/11/13 11:10:31;;;;;;;15.77;9.77;;;9.80;99.90;;;;;;4937505;28;20045;-85
2022/11/13 11:13:11;;;;;;;15.40;9.32;;;9.90;99.90;;;;;;4948078;28;20133;-85
2022/11/13 11:15:55;;;;;;;16.08;9.57;;;10.00;99.90;;;;;;4937830;28;20046;-85
2022/11/13 11:18:30;;;;;;;16.10;9.98;;;10.10;99.90;;;;;;4965909;28;20054;-85
2022/11/13 11:21:12;;;;;;;13.82;9.18;;;10.30;99.90;;;;;;4941845;28;20579;-85
2022/11/13 11:24:12;;;;;;;14.65;9.45;;;10.40;99.90;;;;;;4945432;28;20047;-84
2022/11/13 11:26:49;;;;;;;15.00;9.90;;;10.50;99.90;;;;;;4948865;28;20067;-85
2022/11/13 11:29:38;;;;;;;14.43;9.57;;;10.50;99.90;;;;;;4948680;28;20047;-84
2022/11/13 11:32:43;;;;;;;14.70;9.90;;;10.60;99.90;;;;;;4947822;28;20082;-85
2022/11/13 11:35:45;;;;;;;16.45;10.00;;;10.70;99.90;;;;;;4956743;28;20050;-84
2022/11/13 11:38:20;;;;;;;15.73;10.23;;;10.90;99.90;;;;;;4948305;28;20046;-84
2022/11/13 11:40:51;;;;;;;17.02;10.30;;;10.70;99.90;;;;;;4964461;28;20043;-85
2022/11/13 11:43:42;;;;;;;15.60;10.13;;;10.80;99.90;;;;;;4950605;28;20705;-84
2022/11/13 11:46:21;;;;;;;14.88;9.27;;;10.40;99.90;;;;;;4950878;28;20051;-85
2022/11/13 11:48:46;;;;;;;14.70;9.98;;;10.90;99.90;;;;;;4951892;28;20046;-85
2022/11/13 11:51:24;;;;;;;16.52;9.43;;;11.00;99.90;;;;;;4935776;28;20046;-85
2022/11/13 11:54:10;;;;;;;14.40;9.75;;;11.10;99.90;;;;;;4949022;28;20070;-84
2022/11/13 11:56:42;;;;;;;15.23;9.60;;;11.20;99.90;;;;;;4951110;28;20043;-85
2022/11/13 11:59:11;;;;;;;15.23;9.73;;;11.20;99.90;;;;;;4967562;28;20049;-86
2022/11/13 12:01:49;;;;;;;15.85;9.68;;;11.40;99.90;;;;;;4951566;28;20046;-85
2022/11/13 12:04:37;;;;;;;15.10;9.82;;;11.40;99.90;;;;;;4951604;28;20034;-85
2022/11/13 12:07:23;;;;;;;14.75;9.10;;;11.50;99.90;;;;;;4950412;28;20395;-84
2022/11/13 12:10:23;;;;;;;16.02;9.70;;;11.50;99.90;;;;;;4948403;28;20042;-85
2022/11/13 12:13:04;;;;;;;15.55;9.63;;;11.60;99.90;;;;;;4966667;28;20093;-85
2022/11/13 12:15:49;;;;;;;14.25;9.32;;;11.70;99.90;;;;;;4967273;28;20047;-85
2022/11/13 12:18:43;;;;;;;15.35;10.23;;;11.80;99.90;;;;;;4951088;28;20055;-85
2022/11/13 12:21:23;;;;;;;14.73;9.82;;;11.80;99.90;;;;;;4951409;28;20496;-85
2022/11/13 12:23:54;;;;;;;14.35;9.18;;;11.90;99.90;;;;;;4964419;28;20122;-85
2022/11/13 12:26:20;;;;;;;15.30;9.35;;;;;;;;;;4966496;28;20443;-85
2022/11/13 12:29:09;;;;;;;14.25;9.10;;;12.00;99.90;;;;;;4955520;28;20102;-85
2022/11/13 12:32:13;;;;;;;16.13;8.98;;;12.00;99.90;;;;;;4953039;28;20049;-85
2022/11/13 12:34:47;;;;;;;13.68;8.80;;;12.00;99.90;;;;;;4955129;28;20050;-85
2022/11/13 12:37:22;;;;;;;14.55;8.70;;;12.30;99.90;;;;;;4972603;28;20050;-85
2022/11/13 12:40:11;;;;;;;14.10;9.40;;;12.10;99.90;;;;;;4966853;28;20042;-84
2022/11/13 12:43:05;;;;;;;14.82;9.80;;;12.10;99.90;;;;;;4966210;28;20126;-84
2022/11/13 12:45:53;;;;;;;16.10;9.70;;;12.10;99.90;;;;;;4949877;28;20063;-85
2022/11/13 12:48:19;;;;;;;14.00;9.63;;;12.70;99.90;;;;;;4944387;28;20110;-84
2022/11/13 12:51:03;;;;;;;15.05;9.43;;;12.10;99.90;;;;;;4942754;28;20141;-84
2022/11/13 12:53:30;;;;;;;;;;;12.20;99.90;;;;;;4950548;28;20050;-84